createdAt,value
2022-10-18T00:00:52.024Z,8.57
2022-10-18T00:03:19.078Z,8.95
2022-10-18T00:05:48.133Z,8.68
2022-10-18T00:08:16.744Z,8.50
2022-10-18T00:10:44.599Z,8.50
2022-10-18T00:13:12.384Z,9.00
2022-10-18T00:15:39.503Z,9.43
2022-10-18T00:18:06.649Z,9.13
2022-10-18T00:20:34.113Z,9.63
2022-10-18T00:23:01.131Z,8.27
2022-10-18T00:25:28.153Z,8.90
2022-10-18T00:27:55.204Z,8.52
2022-10-18T00:30:22.230Z,9.40
2022-10-18T00:32:49.269Z,9.55
2022-10-18T00:35:16.421Z,8.90
2022-10-18T00:37:43.556Z,9.85
2022-10-18T00:40:11.294Z,8.43
2022-10-18T00:42:38.642Z,9.48
2022-10-18T00:45:23.137Z,9.88
2022-10-18T00:48:00.042Z,10.00
2022-10-18T00:50:32.404Z,8.85
2022-10-18T00:53:04.968Z,9.00
2022-10-18T00:55:34.134Z,8.57
2022-10-18T00:58:02.060Z,9.30
2022-10-18T01:00:29.623Z,9.27
2022-10-18T01:02:59.507Z,8.75
2022-10-18T01:05:26.742Z,9.00
2022-10-18T01:07:57.575Z,9.30
2022-10-18T01:10:35.005Z,8.90
2022-10-18T01:13:25.980Z,9.02
2022-10-18T01:16:18.587Z,8.40
2022-10-18T01:19:04.137Z,8.93
2022-10-18T01:21:43.261Z,9.98
2022-10-18T01:24:49.662Z,9.32
2022-10-18T01:27:26.219Z,9.68
2022-10-18T01:30:20.289Z,9.35
2022-10-18T01:32:54.923Z,9.52
2022-10-18T01:35:37.835Z,8.57
2022-10-18T01:38:11.544Z,9.40
2022-10-18T01:40:41.886Z,9.35
2022-10-18T01:43:12.039Z,8.52
2022-10-18T01:45:40.170Z,9.55
2022-10-18T01:48:07.780Z,9.23
2022-10-18T01:50:35.603Z,9.30
2022-10-18T01:53:03.282Z,8.70
2022-10-18T01:56:03.138Z,8.82
2022-10-18T01:58:46.962Z,8.85
2022-10-18T02:01:53.011Z,8.68
2022-10-18T02:04:40.629Z,8.40
2022-10-18T02:07:29.745Z,8.27
2022-10-18T02:12:44.943Z,9.32
2022-10-18T02:15:17.338Z,9.70
2022-10-18T02:17:46.487Z,9.60
2022-10-18T02:20:19.863Z,8.88
2022-10-18T02:22:50.628Z,9.38
2022-10-18T02:25:23.893Z,9.90
2022-10-18T02:27:52.200Z,8.90
2022-10-18T02:30:28.977Z,8.13
2022-10-18T02:33:16.196Z,8.73
2022-10-18T02:35:52.678Z,8.85
2022-10-18T02:38:21.093Z,9.18
2022-10-18T02:40:48.126Z,9.82
2022-10-18T02:43:15.200Z,9.48
2022-10-18T02:45:42.559Z,9.38
2022-10-18T02:48:10.190Z,9.45
2022-10-18T02:50:37.244Z,9.63
2022-10-18T02:53:04.425Z,9.23
2022-10-18T02:55:31.476Z,8.90
2022-10-18T02:57:58.475Z,9.25
2022-10-18T03:00:25.531Z,9.18
2022-10-18T03:02:53.871Z,9.52
2022-10-18T03:05:21.102Z,9.52
2022-10-18T03:07:48.457Z,9.57
2022-10-18T03:10:15.565Z,9.30
2022-10-18T03:12:42.819Z,10.40
2022-10-18T03:15:10.430Z,8.82
2022-10-18T03:17:37.572Z,9.27
2022-10-18T03:20:05.162Z,9.43
2022-10-18T03:22:32.365Z,9.80
2022-10-18T03:24:59.382Z,8.90
2022-10-18T03:27:26.462Z,9.05
2022-10-18T03:29:53.496Z,9.35
2022-10-18T03:32:20.571Z,10.23
2022-10-18T03:34:47.595Z,9.60
2022-10-18T03:37:14.631Z,9.77
2022-10-18T03:39:41.678Z,9.30
2022-10-18T03:42:08.698Z,9.40
2022-10-18T03:44:35.898Z,10.23
2022-10-18T03:47:02.961Z,10.15
2022-10-18T03:49:30.046Z,10.15
2022-10-18T03:51:57.102Z,10.20
2022-10-18T03:54:24.121Z,9.02
2022-10-18T03:56:51.155Z,9.40
2022-10-18T03:59:18.497Z,9.55
2022-10-18T04:01:45.696Z,10.13
2022-10-18T04:04:12.876Z,8.68
2022-10-18T04:06:41.266Z,10.30
2022-10-18T04:09:10.240Z,9.43
2022-10-18T04:11:37.543Z,9.68
2022-10-18T04:14:04.818Z,9.90
2022-10-18T04:16:31.903Z,9.50
2022-10-18T04:18:59.054Z,9.52
2022-10-18T04:21:26.072Z,9.50
2022-10-18T04:23:53.195Z,10.32
2022-10-18T04:26:20.372Z,10.30
2022-10-18T04:28:47.429Z,9.75
2022-10-18T04:31:16.839Z,11.10
2022-10-18T04:33:43.930Z,10.10
2022-10-18T04:36:10.939Z,9.63
2022-10-18T04:38:38.017Z,9.18
2022-10-18T04:41:05.234Z,9.07
2022-10-18T04:43:32.398Z,11.10
2022-10-18T04:45:59.531Z,10.02
2022-10-18T04:48:26.847Z,9.13
2022-10-18T04:50:53.886Z,9.45
2022-10-18T04:53:21.022Z,9.93
2022-10-18T04:55:51.827Z,10.00
2022-10-18T04:58:19.654Z,9.65
2022-10-18T05:00:50.278Z,10.60
2022-10-18T05:03:17.697Z,9.52
2022-10-18T05:06:03.124Z,9.77
2022-10-18T05:08:32.981Z,11.02
2022-10-18T05:11:00.674Z,11.10
2022-10-18T05:13:27.949Z,10.45
2022-10-18T05:15:55.033Z,11.07
2022-10-18T05:18:22.161Z,10.95
2022-10-18T05:20:49.182Z,11.40
2022-10-18T05:23:16.308Z,10.52
2022-10-18T05:25:44.062Z,11.35
2022-10-18T05:28:37.989Z,10.75
2022-10-18T05:31:02.963Z,11.75
2022-10-18T05:33:30.215Z,11.02
2022-10-18T05:35:57.439Z,10.43
2022-10-18T05:38:24.743Z,11.25
2022-10-18T05:40:52.100Z,11.32
2022-10-18T05:43:19.214Z,11.30
2022-10-18T05:45:52.136Z,12.02
2022-10-18T05:48:19.617Z,11.35
2022-10-18T05:50:46.760Z,11.40
2022-10-18T05:53:35.092Z,12.73
2022-10-18T05:56:02.279Z,11.20
2022-10-18T05:58:29.462Z,12.45
2022-10-18T06:01:00.965Z,12.63
2022-10-18T06:03:30.325Z,11.57
2022-10-18T13:37:24.197Z,9.27
2022-10-18T13:40:13.434Z,9.65
2022-10-18T13:42:40.595Z,10.38
2022-10-18T13:45:32.288Z,10.40
2022-10-18T13:48:27.349Z,9.75
2022-10-18T13:51:22.513Z,9.60
2022-10-18T13:54:27.927Z,8.60
2022-10-18T13:57:22.168Z,10.10
2022-10-18T14:00:04.516Z,9.52
2022-10-18T14:02:58.618Z,10.27
2022-10-18T14:05:51.895Z,10.70
2022-10-18T14:08:35.331Z,9.88
2022-10-18T14:11:22.619Z,10.05
2022-10-18T14:14:17.023Z,10.63
2022-10-18T14:17:04.038Z,10.13
2022-10-18T14:19:39.397Z,9.80
2022-10-18T14:24:38.808Z,8.75
2022-10-18T14:27:32.557Z,10.13
2022-10-18T14:30:20.667Z,9.98
2022-10-18T14:32:52.112Z,10.00
2022-10-18T14:35:33.065Z,8.85
2022-10-18T14:38:02.192Z,9.77
2022-10-18T14:40:40.126Z,9.52
2022-10-18T14:43:12.760Z,8.80
2022-10-18T14:45:42.183Z,8.52
2022-10-18T14:48:22.700Z,10.32
2022-10-18T14:51:00.188Z,10.07
2022-10-18T14:53:38.964Z,8.48
2022-10-18T14:56:08.288Z,8.60
2022-10-18T14:58:37.492Z,9.32
2022-10-18T15:01:05.508Z,9.35
2022-10-18T15:03:35.735Z,9.85
2022-10-18T15:06:06.057Z,10.35
2022-10-18T15:08:39.917Z,9.73
2022-10-18T15:11:11.850Z,10.05
2022-10-18T15:13:55.282Z,9.30
2022-10-18T15:16:28.318Z,9.75
2022-10-18T15:19:15.030Z,9.75
2022-10-18T15:22:19.695Z,10.05
2022-10-18T15:24:44.988Z,9.70
2022-10-18T15:27:32.142Z,10.30
2022-10-18T15:30:15.288Z,10.40
2022-10-18T15:32:54.871Z,10.65
2022-10-18T15:35:35.249Z,9.43
2022-10-18T15:38:17.325Z,11.13
2022-10-18T15:40:44.637Z,10.85
2022-10-18T15:43:23.657Z,10.38
2022-10-18T15:45:51.811Z,11.02
2022-10-18T15:48:25.851Z,11.23
2022-10-18T15:50:56.905Z,10.60
2022-10-18T15:53:52.912Z,11.25
2022-10-18T15:56:32.908Z,10.73
2022-10-18T15:59:05.212Z,9.57
2022-10-18T16:01:34.982Z,10.18
2022-10-18T16:04:13.217Z,10.93
2022-10-18T16:06:41.456Z,10.68
2022-10-18T16:09:16.172Z,11.02
2022-10-18T16:11:43.426Z,10.35
2022-10-18T16:14:10.602Z,10.70
2022-10-18T16:16:39.442Z,11.00
2022-10-18T16:19:07.635Z,10.68
2022-10-18T16:21:38.776Z,11.57
2022-10-18T16:24:06.586Z,11.18
2022-10-18T16:26:35.052Z,11.20
2022-10-18T16:29:02.506Z,11.13
2022-10-18T16:31:34.032Z,11.40
2022-10-18T16:34:02.520Z,10.90
2022-10-18T16:36:33.119Z,11.07
2022-10-18T16:39:07.710Z,11.50
2022-10-18T16:41:34.861Z,12.02
2022-10-18T16:44:01.953Z,11.35
2022-10-18T16:46:31.949Z,12.85
2022-10-18T16:49:00.250Z,13.38
2022-10-18T16:51:28.455Z,13.43
2022-10-18T16:53:56.009Z,12.20
2022-10-18T16:56:30.744Z,13.25
2022-10-18T16:58:59.254Z,14.50
2022-10-18T17:01:27.696Z,13.15
2022-10-18T17:03:56.503Z,13.43
2022-10-18T17:06:28.167Z,13.10
2022-10-18T17:08:56.844Z,13.02
2022-10-18T17:11:27.739Z,13.50
2022-10-18T17:13:55.913Z,13.60
2022-10-18T17:16:37.351Z,13.88
2022-10-18T17:19:08.446Z,13.70
2022-10-18T17:21:36.076Z,13.30
2022-10-18T17:24:06.328Z,14.52
2022-10-18T17:26:34.888Z,13.55
2022-10-18T17:29:06.953Z,14.55
2022-10-18T17:31:36.064Z,14.90
2022-10-18T17:34:04.600Z,14.88
2022-10-18T17:36:33.846Z,15.57
2022-10-18T17:39:01.808Z,15.30
2022-10-18T17:41:29.958Z,16.15
2022-10-18T17:43:58.082Z,14.82
2022-10-18T17:46:26.549Z,16.13
2022-10-18T17:48:55.019Z,16.27
2022-10-18T17:51:23.942Z,15.77
2022-10-18T17:53:53.465Z,16.60
2022-10-18T17:56:21.681Z,16.88
2022-10-18T17:58:53.312Z,17.55
2022-10-18T18:01:23.869Z,16.90
2022-10-18T18:04:00.510Z,16.35
2022-10-18T18:06:34.133Z,17.17
2022-10-18T18:09:08.992Z,17.50
2022-10-18T18:11:39.981Z,18.05
2022-10-18T18:14:10.179Z,18.98
2022-10-18T18:16:43.910Z,18.10
2022-10-18T18:19:12.969Z,18.40
2022-10-18T18:21:41.825Z,17.45
2022-10-18T18:24:12.254Z,18.65
2022-10-18T18:26:42.742Z,19.30
2022-10-18T18:29:13.516Z,17.75
2022-10-18T18:31:43.621Z,17.10
2022-10-18T18:34:14.491Z,17.23
2022-10-18T18:36:43.323Z,17.45
2022-10-18T18:39:25.145Z,16.83
2022-10-18T18:41:53.647Z,18.23
2022-10-18T18:44:23.322Z,18.30
2022-10-18T18:46:51.485Z,19.17
2022-10-18T18:49:19.667Z,18.85
2022-10-18T18:51:48.035Z,18.58
2022-10-18T18:54:17.321Z,18.77
2022-10-18T18:56:45.570Z,18.80
2022-10-18T18:59:15.127Z,20.08
2022-10-18T19:01:44.731Z,19.38
2022-10-18T19:04:13.949Z,18.83
2022-10-18T19:06:46.135Z,20.10
2022-10-18T19:09:22.525Z,18.80
2022-10-18T19:11:53.937Z,21.27
2022-10-18T19:14:25.513Z,19.88
2022-10-18T19:17:01.692Z,19.58
2022-10-18T19:22:05.181Z,18.25
2022-10-18T19:24:33.487Z,20.23
2022-10-18T19:27:05.508Z,19.77
2022-10-18T19:29:37.476Z,18.98
2022-10-18T19:32:12.605Z,20.95
2022-10-18T19:34:43.595Z,19.55
2022-10-18T19:37:15.742Z,20.20
2022-10-18T19:39:45.272Z,19.23
2022-10-18T19:42:18.611Z,19.73
2022-10-18T19:44:48.657Z,19.85
2022-10-18T19:47:16.377Z,20.35
2022-10-18T19:49:44.399Z,20.58
2022-10-18T19:52:12.992Z,21.00
2022-10-18T19:54:40.500Z,19.92
2022-10-18T19:57:08.816Z,21.70
2022-10-18T20:02:17.859Z,21.83
2022-10-18T20:04:46.477Z,20.98
2022-10-18T20:07:13.995Z,19.77
2022-10-18T20:09:41.309Z,21.10
2022-10-18T20:12:08.423Z,20.00
2022-10-18T20:14:35.891Z,21.13
2022-10-18T20:17:03.239Z,20.58
2022-10-18T20:19:30.297Z,21.48
2022-10-18T20:21:58.063Z,19.73
2022-10-18T20:24:25.905Z,20.08
2022-10-18T20:29:25.677Z,19.40
2022-10-18T20:31:55.586Z,19.90
2022-10-18T20:34:25.994Z,20.63
2022-10-18T20:36:56.553Z,20.83
2022-10-18T20:39:23.889Z,20.98
2022-10-18T20:41:51.075Z,20.55
2022-10-18T20:44:19.764Z,20.20
2022-10-18T20:46:47.191Z,14.23
2022-10-18T20:49:17.010Z,12.68
2022-10-18T20:51:44.367Z,13.18
2022-10-18T20:54:13.868Z,12.30
2022-10-18T20:56:41.108Z,10.60
2022-10-18T20:59:10.302Z,10.90
2022-10-18T21:01:39.112Z,10.93
2022-10-18T21:04:09.049Z,10.88
2022-10-18T21:06:42.940Z,10.48
2022-10-18T21:09:18.045Z,11.48
2022-10-18T21:11:49.452Z,10.27
2022-10-18T21:14:20.006Z,9.68
2022-10-18T21:16:48.292Z,10.70
2022-10-18T21:19:20.526Z,9.85
2022-10-18T21:21:50.514Z,10.18
2022-10-18T21:24:19.527Z,8.77
2022-10-18T21:26:47.889Z,10.05
2022-10-18T21:29:20.778Z,9.00
2022-10-18T21:31:49.178Z,9.20
2022-10-18T21:34:17.539Z,7.90
2022-10-18T21:36:46.956Z,10.57
2022-10-18T21:41:51.718Z,6.88
2022-10-18T21:44:19.123Z,7.80
2022-10-18T21:46:46.903Z,8.05
2022-10-18T21:49:15.676Z,7.97
2022-10-18T21:51:43.674Z,9.00
2022-10-18T21:54:16.297Z,8.77
2022-10-18T21:56:43.879Z,9.43
2022-10-18T21:59:14.458Z,9.40
2022-10-18T22:01:43.603Z,9.57
2022-10-18T22:04:23.533Z,9.18
2022-10-18T22:06:51.102Z,9.07
2022-10-18T22:09:18.297Z,10.30
2022-10-18T22:11:51.721Z,9.30
2022-10-18T22:14:18.842Z,9.18
2022-10-18T22:16:46.037Z,9.93
2022-10-18T22:19:13.593Z,8.68
2022-10-18T22:21:40.651Z,8.20
2022-10-18T22:24:10.081Z,8.70
2022-10-18T22:26:40.847Z,8.95
2022-10-18T22:29:18.031Z,8.48
2022-10-18T22:31:51.953Z,7.88
2022-10-18T22:34:23.797Z,8.07
2022-10-18T22:36:51.190Z,9.10
2022-10-18T22:39:18.584Z,7.72
2022-10-18T22:41:46.654Z,9.00
2022-10-18T22:44:15.423Z,8.80
2022-10-18T22:46:42.785Z,7.65
2022-10-18T22:49:11.416Z,7.68
2022-10-18T22:51:38.529Z,8.25
2022-10-18T22:54:06.013Z,7.72
2022-10-18T22:56:33.057Z,9.57
2022-10-18T22:59:00.127Z,9.40
2022-10-18T23:01:27.235Z,9.85
2022-10-18T23:03:59.981Z,9.05
2022-10-18T23:06:30.946Z,9.75
2022-10-18T23:09:01.485Z,8.90
2022-10-18T23:11:29.357Z,9.48
2022-10-18T23:13:56.640Z,11.93
2022-10-18T23:16:24.253Z,11.88
2022-10-18T23:18:54.413Z,11.80
2022-10-18T23:21:24.378Z,12.55
2022-10-18T23:23:53.000Z,12.80
2022-10-18T23:26:23.881Z,11.55
2022-10-18T23:28:52.491Z,10.65
2022-10-18T23:31:25.052Z,11.35
2022-10-18T23:33:55.473Z,10.85
2022-10-18T23:36:23.976Z,10.05
2022-10-18T23:38:51.615Z,9.52
2022-10-18T23:41:19.346Z,10.00
2022-10-18T23:43:47.319Z,10.23
2022-10-18T23:46:16.903Z,10.25
2022-10-18T23:48:44.747Z,10.00
2022-10-18T23:51:12.054Z,10.60
2022-10-18T23:53:40.001Z,10.13
2022-10-18T23:56:13.684Z,9.98
2022-10-18T23:58:41.369Z,10.60
